sensor_id;sensor_type;location;lat;lon;timestamp;P1;durP1;ratioP1;P2;durP2;ratioP2
15976;SDS011;8091;51.914;12.786;2022-09-09T00:03:51;72.07;;;28.25;;
15976;SDS011;8091;51.914;12.786;2022-09-09T00:06:30;57.42;;;20.58;;
15976;SDS011;8091;51.914;12.786;2022-09-09T00:09:02;31.83;;;11.90;;
15976;SDS011;8091;51.914;12.786;2022-09-09T00:11:43;16.70;;;6.53;;
15976;SDS011;8091;51.914;12.786;2022-09-09T00:14:14;20.05;;;7.07;;
15976;SDS011;8091;51.914;12.786;2022-09-09T00:16:50;18.30;;;6.80;;
15976;SDS011;8091;51.914;12.786;2022-09-09T00:27:35;22.63;;;7.70;;
15976;SDS011;8091;51.914;12.786;2022-09-09T00:30:20;20.95;;;7.05;;
15976;SDS011;8091;51.914;12.786;2022-09-09T00:32:48;21.63;;;7.10;;
15976;SDS011;8091;51.914;12.786;2022-09-09T00:35:32;17.25;;;8.45;;
15976;SDS011;8091;51.914;12.786;2022-09-09T00:38:04;22.90;;;9.05;;
15976;SDS011;8091;51.914;12.786;2022-09-09T00:40:50;22.23;;;12.93;;
15976;SDS011;8091;51.914;12.786;2022-09-09T00:43:25;18.65;;;8.32;;
15976;SDS011;8091;51.914;12.786;2022-09-09T00:51:34;17.85;;;6.90;;
15976;SDS011;8091;51.914;12.786;2022-09-09T00:54:29;18.63;;;7.50;;
15976;SDS011;8091;51.914;12.786;2022-09-09T00:59:56;17.35;;;10.10;;
15976;SDS011;8091;51.914;12.786;2022-09-09T01:05:36;22.17;;;17.27;;
15976;SDS011;8091;51.914;12.786;2022-09-09T01:11:26;21.75;;;14.73;;
15976;SDS011;8091;51.914;12.786;2022-09-09T01:14:20;18.45;;;11.23;;
15976;SDS011;8091;51.914;12.786;2022-09-09T01:20:14;24.35;;;19.10;;
15976;SDS011;8091;51.914;12.786;2022-09-09T01:28:27;25.23;;;16.45;;
15976;SDS011;8091;51.914;12.786;2022-09-09T01:30:54;17.77;;;10.93;;
15976;SDS011;8091;51.914;12.786;2022-09-09T01:33:22;25.42;;;22.80;;
15976;SDS011;8091;51.914;12.786;2022-09-09T01:36:02;22.15;;;18.20;;
15976;SDS011;8091;51.914;12.786;2022-09-09T01:38:33;19.48;;;16.15;;
15976;SDS011;8091;51.914;12.786;2022-09-09T01:40:59;24.58;;;15.52;;
15976;SDS011;8091;51.914;12.786;2022-09-09T01:43:26;19.30;;;11.15;;
15976;SDS011;8091;51.914;12.786;2022-09-09T01:45:53;23.83;;;20.45;;
15976;SDS011;8091;51.914;12.786;2022-09-09T01:48:21;19.38;;;17.20;;
15976;SDS011;8091;51.914;12.786;2022-09-09T01:50:48;24.00;;;18.33;;
15976;SDS011;8091;51.914;12.786;2022-09-09T01:53:14;18.33;;;12.77;;
15976;SDS011;8091;51.914;12.786;2022-09-09T01:55:44;24.52;;;15.98;;
15976;SDS011;8091;51.914;12.786;2022-09-09T01:58:23;23.60;;;15.18;;
15976;SDS011;8091;51.914;12.786;2022-09-09T02:00:55;29.35;;;25.40;;
15976;SDS011;8091;51.914;12.786;2022-09-09T02:03:27;25.33;;;18.83;;
15976;SDS011;8091;51.914;12.786;2022-09-09T02:06:40;22.65;;;19.23;;
15976;SDS011;8091;51.914;12.786;2022-09-09T02:08:47;22.23;;;19.02;;
15976;SDS011;8091;51.914;12.786;2022-09-09T02:11:16;19.80;;;12.60;;
15976;SDS011;8091;51.914;12.786;2022-09-09T02:13:44;47.83;;;43.92;;
15976;SDS011;8091;51.914;12.786;2022-09-09T02:16:24;22.25;;;13.35;;
15976;SDS011;8091;51.914;12.786;2022-09-09T02:19:04;22.73;;;17.13;;
15976;SDS011;8091;51.914;12.786;2022-09-09T02:21:41;24.38;;;15.35;;
15976;SDS011;8091;51.914;12.786;2022-09-09T02:24:10;24.50;;;16.88;;
15976;SDS011;8091;51.914;12.786;2022-09-09T02:26:40;21.08;;;17.58;;
15976;SDS011;8091;51.914;12.786;2022-09-09T02:29:09;27.48;;;24.63;;
15976;SDS011;8091;51.914;12.786;2022-09-09T02:31:39;24.50;;;15.13;;
15976;SDS011;8091;51.914;12.786;2022-09-09T02:34:07;23.65;;;17.58;;
15976;SDS011;8091;51.914;12.786;2022-09-09T02:36:36;34.30;;;30.85;;
15976;SDS011;8091;51.914;12.786;2022-09-09T02:39:05;31.17;;;28.00;;
15976;SDS011;8091;51.914;12.786;2022-09-09T02:41:34;37.20;;;33.67;;
15976;SDS011;8091;51.914;12.786;2022-09-09T02:44:13;35.95;;;32.50;;
15976;SDS011;8091;51.914;12.786;2022-09-09T02:46:56;35.20;;;31.60;;
15976;SDS011;8091;51.914;12.786;2022-09-09T02:49:47;40.40;;;36.60;;
15976;SDS011;8091;51.914;12.786;2022-09-09T02:52:18;31.30;;;27.95;;
15976;SDS011;8091;51.914;12.786;2022-09-09T02:54:50;45.30;;;41.53;;
15976;SDS011;8091;51.914;12.786;2022-09-09T02:57:25;40.60;;;30.27;;
15976;SDS011;8091;51.914;12.786;2022-09-09T02:59:52;50.60;;;46.25;;
15976;SDS011;8091;51.914;12.786;2022-09-09T03:02:21;39.17;;;35.65;;
15976;SDS011;8091;51.914;12.786;2022-09-09T03:04:47;28.33;;;23.30;;
15976;SDS011;8091;51.914;12.786;2022-09-09T03:07:17;36.15;;;32.63;;
15976;SDS011;8091;51.914;12.786;2022-09-09T03:09:44;52.35;;;48.10;;
15976;SDS011;8091;51.914;12.786;2022-09-09T03:12:10;52.30;;;48.05;;
15976;SDS011;8091;51.914;12.786;2022-09-09T03:14:36;52.28;;;48.35;;
15976;SDS011;8091;51.914;12.786;2022-09-09T03:17:03;50.50;;;46.40;;
15976;SDS011;8091;51.914;12.786;2022-09-09T03:19:30;37.13;;;33.47;;
15976;SDS011;8091;51.914;12.786;2022-09-09T03:21:56;35.03;;;32.25;;
15976;SDS011;8091;51.914;12.786;2022-09-09T03:24:23;54.60;;;49.95;;
15976;SDS011;8091;51.914;12.786;2022-09-09T03:26:49;38.10;;;34.72;;
15976;SDS011;8091;51.914;12.786;2022-09-09T03:29:15;46.42;;;42.42;;
15976;SDS011;8091;51.914;12.786;2022-09-09T03:31:43;50.67;;;46.60;;
15976;SDS011;8091;51.914;12.786;2022-09-09T03:34:09;58.78;;;53.95;;
15976;SDS011;8091;51.914;12.786;2022-09-09T03:36:35;57.42;;;53.15;;
15976;SDS011;8091;51.914;12.786;2022-09-09T03:39:01;54.60;;;49.92;;
15976;SDS011;8091;51.914;12.786;2022-09-09T03:41:28;42.03;;;38.47;;
15976;SDS011;8091;51.914;12.786;2022-09-09T03:43:54;50.25;;;46.22;;
15976;SDS011;8091;51.914;12.786;2022-09-09T03:46:20;62.38;;;57.45;;
15976;SDS011;8091;51.914;12.786;2022-09-09T03:48:47;77.45;;;72.63;;
15976;SDS011;8091;51.914;12.786;2022-09-09T03:51:13;61.72;;;56.85;;
15976;SDS011;8091;51.914;12.786;2022-09-09T03:53:40;63.10;;;58.40;;
15976;SDS011;8091;51.914;12.786;2022-09-09T03:56:05;57.90;;;53.10;;
15976;SDS011;8091;51.914;12.786;2022-09-09T03:58:32;38.67;;;35.22;;
15976;SDS011;8091;51.914;12.786;2022-09-09T04:00:59;44.15;;;39.80;;
15976;SDS011;8091;51.914;12.786;2022-09-09T04:03:27;41.03;;;37.55;;
15976;SDS011;8091;51.914;12.786;2022-09-09T04:05:53;47.22;;;43.05;;
15976;SDS011;8091;51.914;12.786;2022-09-09T04:08:21;59.17;;;54.92;;
15976;SDS011;8091;51.914;12.786;2022-09-09T04:10:48;80.50;;;74.70;;
15976;SDS011;8091;51.914;12.786;2022-09-09T04:13:14;70.63;;;64.90;;
15976;SDS011;8091;51.914;12.786;2022-09-09T04:15:42;66.82;;;61.80;;
15976;SDS011;8091;51.914;12.786;2022-09-09T04:18:08;72.50;;;66.90;;
15976;SDS011;8091;51.914;12.786;2022-09-09T04:20:34;83.10;;;76.75;;
15976;SDS011;8091;51.914;12.786;2022-09-09T04:23:00;66.38;;;61.25;;
15976;SDS011;8091;51.914;12.786;2022-09-09T04:25:26;90.05;;;84.10;;
15976;SDS011;8091;51.914;12.786;2022-09-09T04:27:54;99.97;;;93.25;;
15976;SDS011;8091;51.914;12.786;2022-09-09T04:30:21;103.03;;;96.00;;
15976;SDS011;8091;51.914;12.786;2022-09-09T04:32:47;82.30;;;76.90;;
15976;SDS011;8091;51.914;12.786;2022-09-09T04:35:12;83.90;;;77.80;;
15976;SDS011;8091;51.914;12.786;2022-09-09T04:37:38;117.40;;;109.63;;
15976;SDS011;8091;51.914;12.786;2022-09-09T04:40:04;100.25;;;93.63;;
15976;SDS011;8091;51.914;12.786;2022-09-09T04:42:34;107.25;;;100.28;;
15976;SDS011;8091;51.914;12.786;2022-09-09T04:45:00;109.90;;;102.63;;
15976;SDS011;8091;51.914;12.786;2022-09-09T04:47:27;116.40;;;107.60;;
15976;SDS011;8091;51.914;12.786;2022-09-09T04:49:52;102.45;;;95.43;;
15976;SDS011;8091;51.914;12.786;2022-09-09T04:52:19;110.10;;;103.40;;
15976;SDS011;8091;51.914;12.786;2022-09-09T04:54:45;91.15;;;85.00;;
15976;SDS011;8091;51.914;12.786;2022-09-09T04:57:11;115.20;;;107.72;;
15976;SDS011;8091;51.914;12.786;2022-09-09T04:59:37;107.78;;;100.50;;
15976;SDS011;8091;51.914;12.786;2022-09-09T05:02:04;114.80;;;107.75;;
15976;SDS011;8091;51.914;12.786;2022-09-09T05:04:30;114.47;;;106.40;;
15976;SDS011;8091;51.914;12.786;2022-09-09T05:06:56;128.90;;;120.45;;
15976;SDS011;8091;51.914;12.786;2022-09-09T05:09:21;117.43;;;109.30;;
15976;SDS011;8091;51.914;12.786;2022-09-09T05:11:47;118.53;;;110.82;;
15976;SDS011;8091;51.914;12.786;2022-09-09T05:14:12;128.35;;;120.07;;
15976;SDS011;8091;51.914;12.786;2022-09-09T05:16:39;149.55;;;140.43;;
15976;SDS011;8091;51.914;12.786;2022-09-09T05:19:05;138.30;;;129.13;;
15976;SDS011;8091;51.914;12.786;2022-09-09T05:21:33;147.98;;;138.85;;
15976;SDS011;8091;51.914;12.786;2022-09-09T05:23:58;150.85;;;141.40;;
15976;SDS011;8091;51.914;12.786;2022-09-09T05:26:25;172.93;;;162.65;;
15976;SDS011;8091;51.914;12.786;2022-09-09T05:28:51;192.93;;;181.68;;
15976;SDS011;8091;51.914;12.786;2022-09-09T05:31:17;167.02;;;156.77;;
15976;SDS011;8091;51.914;12.786;2022-09-09T05:33:43;193.00;;;181.10;;
15976;SDS011;8091;51.914;12.786;2022-09-09T05:36:14;208.48;;;195.10;;
15976;SDS011;8091;51.914;12.786;2022-09-09T05:38:42;232.48;;;218.15;;
15976;SDS011;8091;51.914;12.786;2022-09-09T05:41:09;218.90;;;206.30;;
15976;SDS011;8091;51.914;12.786;2022-09-09T05:43:40;208.88;;;196.45;;
15976;SDS011;8091;51.914;12.786;2022-09-09T05:48:34;282.60;;;264.38;;
15976;SDS011;8091;51.914;12.786;2022-09-09T05:51:02;273.60;;;256.80;;
15976;SDS011;8091;51.914;12.786;2022-09-09T05:53:29;265.67;;;249.32;;
15976;SDS011;8091;51.914;12.786;2022-09-09T05:56:09;283.25;;;265.30;;
15976;SDS011;8091;51.914;12.786;2022-09-09T05:58:36;285.23;;;267.90;;
15976;SDS011;8091;51.914;12.786;2022-09-09T06:01:04;299.50;;;280.58;;
15976;SDS011;8091;51.914;12.786;2022-09-09T06:03:35;339.35;;;317.45;;
15976;SDS011;8091;51.914;12.786;2022-09-09T06:06:02;347.83;;;325.75;;
15976;SDS011;8091;51.914;12.786;2022-09-09T06:08:32;337.80;;;316.42;;
15976;SDS011;8091;51.914;12.786;2022-09-09T06:11:18;395.67;;;370.30;;
15976;SDS011;8091;51.914;12.786;2022-09-09T06:13:48;400.67;;;373.83;;
15976;SDS011;8091;51.914;12.786;2022-09-09T06:16:17;408.17;;;381.67;;
15976;SDS011;8091;51.914;12.786;2022-09-09T06:18:44;405.02;;;379.20;;
15976;SDS011;8091;51.914;12.786;2022-09-09T06:21:16;425.83;;;397.35;;
15976;SDS011;8091;51.914;12.786;2022-09-09T06:23:43;425.08;;;396.63;;
15976;SDS011;8091;51.914;12.786;2022-09-09T06:26:11;373.55;;;350.85;;
15976;SDS011;8091;51.914;12.786;2022-09-09T06:28:37;393.88;;;369.17;;
15976;SDS011;8091;51.914;12.786;2022-09-09T06:31:04;422.13;;;395.30;;
15976;SDS011;8091;51.914;12.786;2022-09-09T06:33:32;418.98;;;391.55;;
15976;SDS011;8091;51.914;12.786;2022-09-09T06:36:00;413.65;;;387.40;;
15976;SDS011;8091;51.914;12.786;2022-09-09T06:38:27;394.13;;;369.40;;
15976;SDS011;8091;51.914;12.786;2022-09-09T06:40:55;394.27;;;369.40;;
15976;SDS011;8091;51.914;12.786;2022-09-09T06:43:24;396.70;;;372.10;;
15976;SDS011;8091;51.914;12.786;2022-09-09T06:48:23;425.33;;;397.73;;
15976;SDS011;8091;51.914;12.786;2022-09-09T06:50:51;424.08;;;396.65;;
15976;SDS011;8091;51.914;12.786;2022-09-09T06:53:25;426.17;;;397.98;;
15976;SDS011;8091;51.914;12.786;2022-09-09T06:55:52;437.67;;;409.13;;
15976;SDS011;8091;51.914;12.786;2022-09-09T06:58:18;451.48;;;422.10;;
15976;SDS011;8091;51.914;12.786;2022-09-09T07:00:43;449.42;;;419.65;;
15976;SDS011;8091;51.914;12.786;2022-09-09T07:03:09;457.60;;;427.60;;
15976;SDS011;8091;51.914;12.786;2022-09-09T07:05:35;456.85;;;427.05;;
15976;SDS011;8091;51.914;12.786;2022-09-09T07:08:01;469.52;;;438.05;;
15976;SDS011;8091;51.914;12.786;2022-09-09T07:10:27;470.10;;;439.05;;
15976;SDS011;8091;51.914;12.786;2022-09-09T07:12:52;524.90;;;487.38;;
15976;SDS011;8091;51.914;12.786;2022-09-09T07:15:18;531.30;;;492.63;;
15976;SDS011;8091;51.914;12.786;2022-09-09T07:17:44;533.78;;;496.08;;
15976;SDS011;8091;51.914;12.786;2022-09-09T07:20:11;555.03;;;514.97;;
15976;SDS011;8091;51.914;12.786;2022-09-09T07:22:37;556.42;;;516.90;;
15976;SDS011;8091;51.914;12.786;2022-09-09T07:25:03;559.92;;;519.78;;
15976;SDS011;8091;51.914;12.786;2022-09-09T07:27:29;577.83;;;534.72;;
15976;SDS011;8091;51.914;12.786;2022-09-09T07:29:58;555.63;;;515.53;;
15976;SDS011;8091;51.914;12.786;2022-09-09T07:32:23;589.85;;;547.10;;
15976;SDS011;8091;51.914;12.786;2022-09-09T07:34:50;592.90;;;548.70;;
15976;SDS011;8091;51.914;12.786;2022-09-09T07:37:16;571.08;;;528.45;;
15976;SDS011;8091;51.914;12.786;2022-09-09T07:39:42;588.58;;;544.63;;
15976;SDS011;8091;51.914;12.786;2022-09-09T07:42:08;601.72;;;557.50;;
15976;SDS011;8091;51.914;12.786;2022-09-09T07:44:36;602.67;;;558.80;;
15976;SDS011;8091;51.914;12.786;2022-09-09T07:47:04;621.97;;;576.90;;
15976;SDS011;8091;51.914;12.786;2022-09-09T07:49:30;629.72;;;584.17;;
15976;SDS011;8091;51.914;12.786;2022-09-09T07:51:57;633.25;;;587.17;;
15976;SDS011;8091;51.914;12.786;2022-09-09T07:54:23;681.08;;;632.17;;
15976;SDS011;8091;51.914;12.786;2022-09-09T07:56:49;649.40;;;603.03;;
15976;SDS011;8091;51.914;12.786;2022-09-09T07:59:16;673.70;;;625.70;;
15976;SDS011;8091;51.914;12.786;2022-09-09T08:01:51;671.95;;;624.58;;
15976;SDS011;8091;51.914;12.786;2022-09-09T08:04:20;648.67;;;602.40;;
15976;SDS011;8091;51.914;12.786;2022-09-09T08:06:51;674.47;;;626.03;;
15976;SDS011;8091;51.914;12.786;2022-09-09T08:09:20;706.45;;;655.17;;
15976;SDS011;8091;51.914;12.786;2022-09-09T08:11:46;717.58;;;665.20;;
15976;SDS011;8091;51.914;12.786;2022-09-09T08:14:12;723.10;;;669.70;;
15976;SDS011;8091;51.914;12.786;2022-09-09T08:16:40;729.13;;;675.22;;
15976;SDS011;8091;51.914;12.786;2022-09-09T08:19:08;719.80;;;665.63;;
15976;SDS011;8091;51.914;12.786;2022-09-09T08:21:35;712.67;;;659.28;;
15976;SDS011;8091;51.914;12.786;2022-09-09T08:24:02;710.45;;;657.33;;
15976;SDS011;8091;51.914;12.786;2022-09-09T08:26:31;616.92;;;571.45;;
15976;SDS011;8091;51.914;12.786;2022-09-09T08:28:59;554.58;;;511.98;;
15976;SDS011;8091;51.914;12.786;2022-09-09T08:31:27;737.47;;;678.60;;
15976;SDS011;8091;51.914;12.786;2022-09-09T08:33:55;688.53;;;636.95;;
15976;SDS011;8091;51.914;12.786;2022-09-09T08:36:23;729.70;;;674.35;;
15976;SDS011;8091;51.914;12.786;2022-09-09T08:38:51;676.13;;;626.38;;
15976;SDS011;8091;51.914;12.786;2022-09-09T08:47:24;524.28;;;488.58;;
15976;SDS011;8091;51.914;12.786;2022-09-09T08:50:29;592.85;;;551.17;;
15976;SDS011;8091;51.914;12.786;2022-09-09T08:55:39;631.97;;;588.72;;
15976;SDS011;8091;51.914;12.786;2022-09-09T08:58:19;536.03;;;500.17;;
15976;SDS011;8091;51.914;12.786;2022-09-09T09:11:39;533.15;;;498.17;;
15976;SDS011;8091;51.914;12.786;2022-09-09T09:14:19;699.05;;;650.22;;
15976;SDS011;8091;51.914;12.786;2022-09-09T09:19:28;572.22;;;533.67;;
15976;SDS011;8091;51.914;12.786;2022-09-09T09:27:38;794.15;;;731.55;;
15976;SDS011;8091;51.914;12.786;2022-09-09T09:30:19;799.70;;;734.08;;
15976;SDS011;8091;51.914;12.786;2022-09-09T09:35:52;805.88;;;735.55;;
15976;SDS011;8091;51.914;12.786;2022-09-09T09:38:22;818.45;;;747.85;;
15976;SDS011;8091;51.914;12.786;2022-09-09T09:40:51;806.92;;;736.35;;
15976;SDS011;8091;51.914;12.786;2022-09-09T09:43:24;821.40;;;751.05;;
15976;SDS011;8091;51.914;12.786;2022-09-09T09:45:59;813.80;;;741.40;;
15976;SDS011;8091;51.914;12.786;2022-09-09T09:48:26;822.10;;;751.80;;
15976;SDS011;8091;51.914;12.786;2022-09-09T09:51:09;837.17;;;763.20;;
15976;SDS011;8091;51.914;12.786;2022-09-09T09:53:38;834.88;;;761.78;;
15976;SDS011;8091;51.914;12.786;2022-09-09T10:03:57;861.80;;;787.65;;
15976;SDS011;8091;51.914;12.786;2022-09-09T10:06:31;851.05;;;773.80;;
15976;SDS011;8091;51.914;12.786;2022-09-09T10:08:58;866.33;;;787.90;;
15976;SDS011;8091;51.914;12.786;2022-09-09T10:14:26;860.03;;;781.42;;
15976;SDS011;8091;51.914;12.786;2022-09-09T10:22:33;878.47;;;800.33;;
15976;SDS011;8091;51.914;12.786;2022-09-09T10:33:33;917.42;;;834.92;;
15976;SDS011;8091;51.914;12.786;2022-09-09T10:38:45;944.20;;;859.42;;
15976;SDS011;8091;51.914;12.786;2022-09-09T10:41:19;980.72;;;894.10;;
15976;SDS011;8091;51.914;12.786;2022-09-09T10:44:02;1012.05;;;924.30;;
15976;SDS011;8091;51.914;12.786;2022-09-09T10:55:09;1081.85;;;991.88;;
15976;SDS011;8091;51.914;12.786;2022-09-09T11:00:21;1059.03;;;969.15;;
15976;SDS011;8091;51.914;12.786;2022-09-09T11:02:56;1044.55;;;956.03;;
15976;SDS011;8091;51.914;12.786;2022-09-09T11:08:18;1024.55;;;936.55;;
15976;SDS011;8091;51.914;12.786;2022-09-09T11:11:06;1058.40;;;968.83;;
15976;SDS011;8091;51.914;12.786;2022-09-09T11:13:38;1092.43;;;997.33;;
15976;SDS011;8091;51.914;12.786;2022-09-09T11:19:21;1123.25;;;999.90;;
15976;SDS011;8091;51.914;12.786;2022-09-09T11:21:50;1155.18;;;999.90;;
15976;SDS011;8091;51.914;12.786;2022-09-09T11:27:10;1171.93;;;999.90;;
15976;SDS011;8091;51.914;12.786;2022-09-09T11:38:25;1159.07;;;999.90;;
15976;SDS011;8091;51.914;12.786;2022-09-09T11:40:55;1152.75;;;999.90;;
15976;SDS011;8091;51.914;12.786;2022-09-09T11:43:38;1126.13;;;999.90;;
15976;SDS011;8091;51.914;12.786;2022-09-09T11:46:06;1102.65;;;999.90;;
15976;SDS011;8091;51.914;12.786;2022-09-09T11:51:01;1084.68;;;993.88;;
15976;SDS011;8091;51.914;12.786;2022-09-09T11:53:30;1095.18;;;998.65;;
15976;SDS011;8091;51.914;12.786;2022-09-09T11:56:00;1096.72;;;999.55;;
15976;SDS011;8091;51.914;12.786;2022-09-09T11:58:31;1071.47;;;981.95;;
15976;SDS011;8091;51.914;12.786;2022-09-09T12:01:26;1054.70;;;965.95;;
15976;SDS011;8091;51.914;12.786;2022-09-09T12:03:56;1040.85;;;952.75;;
15976;SDS011;8091;51.914;12.786;2022-09-09T12:06:48;1027.82;;;939.80;;
15976;SDS011;8091;51.914;12.786;2022-09-09T12:14:59;991.95;;;906.15;;
15976;SDS011;8091;51.914;12.786;2022-09-09T12:17:29;981.67;;;894.88;;
15976;SDS011;8091;51.914;12.786;2022-09-09T12:20:00;972.45;;;886.70;;
15976;SDS011;8091;51.914;12.786;2022-09-09T12:22:46;963.15;;;878.28;;
15976;SDS011;8091;51.914;12.786;2022-09-09T12:33:47;938.40;;;854.20;;
15976;SDS011;8091;51.914;12.786;2022-09-09T12:36:20;949.40;;;864.67;;
15976;SDS011;8091;51.914;12.786;2022-09-09T12:38:49;940.03;;;855.10;;
15976;SDS011;8091;51.914;12.786;2022-09-09T12:41:19;947.45;;;862.63;;
15976;SDS011;8091;51.914;12.786;2022-09-09T12:43:46;934.65;;;850.15;;
15976;SDS011;8091;51.914;12.786;2022-09-09T12:46:17;945.83;;;861.28;;
15976;SDS011;8091;51.914;12.786;2022-09-09T12:48:51;939.05;;;854.80;;
15976;SDS011;8091;51.914;12.786;2022-09-09T12:51:19;934.50;;;850.15;;
15976;SDS011;8091;51.914;12.786;2022-09-09T12:53:51;923.22;;;839.78;;
15976;SDS011;8091;51.914;12.786;2022-09-09T12:56:18;916.55;;;832.53;;
15976;SDS011;8091;51.914;12.786;2022-09-09T12:58:50;899.10;;;815.85;;
15976;SDS011;8091;51.914;12.786;2022-09-09T13:01:21;902.45;;;818.38;;
15976;SDS011;8091;51.914;12.786;2022-09-09T13:03:54;880.15;;;797.47;;
15976;SDS011;8091;51.914;12.786;2022-09-09T13:08:54;850.15;;;767.72;;
15976;SDS011;8091;51.914;12.786;2022-09-09T13:11:23;817.17;;;736.00;;
15976;SDS011;8091;51.914;12.786;2022-09-09T13:13:58;814.88;;;733.58;;
15976;SDS011;8091;51.914;12.786;2022-09-09T13:16:31;842.78;;;761.22;;
15976;SDS011;8091;51.914;12.786;2022-09-09T13:19:06;883.70;;;800.47;;
15976;SDS011;8091;51.914;12.786;2022-09-09T13:21:35;935.67;;;851.40;;
15976;SDS011;8091;51.914;12.786;2022-09-09T13:24:03;986.22;;;900.05;;
15976;SDS011;8091;51.914;12.786;2022-09-09T13:26:32;1036.05;;;947.83;;
15976;SDS011;8091;51.914;12.786;2022-09-09T13:29:14;1047.95;;;960.05;;
15976;SDS011;8091;51.914;12.786;2022-09-09T13:31:45;1073.88;;;984.33;;
15976;SDS011;8091;51.914;12.786;2022-09-09T13:34:12;1080.45;;;990.75;;
15976;SDS011;8091;51.914;12.786;2022-09-09T13:36:52;1111.65;;;999.90;;
15976;SDS011;8091;51.914;12.786;2022-09-09T13:39:24;1155.00;;;999.90;;
15976;SDS011;8091;51.914;12.786;2022-09-09T13:41:49;1175.13;;;999.90;;
15976;SDS011;8091;51.914;12.786;2022-09-09T13:44:28;1185.80;;;999.90;;
15976;SDS011;8091;51.914;12.786;2022-09-09T13:47:06;1194.75;;;999.90;;
15976;SDS011;8091;51.914;12.786;2022-09-09T13:49:48;1216.80;;;999.90;;
15976;SDS011;8091;51.914;12.786;2022-09-09T13:52:15;1223.50;;;999.90;;
15976;SDS011;8091;51.914;12.786;2022-09-09T13:54:47;1208.15;;;999.90;;
15976;SDS011;8091;51.914;12.786;2022-09-09T13:57:17;1205.03;;;999.90;;
15976;SDS011;8091;51.914;12.786;2022-09-09T13:59:45;1189.53;;;999.90;;
15976;SDS011;8091;51.914;12.786;2022-09-09T14:02:11;1176.05;;;999.90;;
15976;SDS011;8091;51.914;12.786;2022-09-09T14:04:38;1170.78;;;999.90;;
15976;SDS011;8091;51.914;12.786;2022-09-09T14:07:07;1179.30;;;999.90;;
15976;SDS011;8091;51.914;12.786;2022-09-09T14:09:39;1184.00;;;999.90;;
15976;SDS011;8091;51.914;12.786;2022-09-09T14:12:05;1173.38;;;999.90;;
15976;SDS011;8091;51.914;12.786;2022-09-09T14:14:34;1191.88;;;999.90;;
15976;SDS011;8091;51.914;12.786;2022-09-09T14:17:00;1185.68;;;999.90;;
15976;SDS011;8091;51.914;12.786;2022-09-09T14:19:25;1181.72;;;999.90;;
15976;SDS011;8091;51.914;12.786;2022-09-09T14:21:51;1158.30;;;999.90;;
15976;SDS011;8091;51.914;12.786;2022-09-09T14:24:17;1136.68;;;999.90;;
15976;SDS011;8091;51.914;12.786;2022-09-09T14:26:42;1123.90;;;999.90;;
15976;SDS011;8091;51.914;12.786;2022-09-09T14:29:08;1104.20;;;999.90;;
15976;SDS011;8091;51.914;12.786;2022-09-09T14:31:33;1078.50;;;988.95;;
15976;SDS011;8091;51.914;12.786;2022-09-09T14:33:59;1062.95;;;974.08;;
15976;SDS011;8091;51.914;12.786;2022-09-09T14:36:25;1056.63;;;968.40;;
15976;SDS011;8091;51.914;12.786;2022-09-09T14:38:50;1070.65;;;981.60;;
15976;SDS011;8091;51.914;12.786;2022-09-09T14:41:18;1103.30;;;999.90;;
15976;SDS011;8091;51.914;12.786;2022-09-09T14:43:47;1122.63;;;999.90;;
15976;SDS011;8091;51.914;12.786;2022-09-09T14:46:14;1133.95;;;999.90;;
15976;SDS011;8091;51.914;12.786;2022-09-09T14:48:41;1148.50;;;999.90;;
15976;SDS011;8091;51.914;12.786;2022-09-09T14:51:11;1158.65;;;999.90;;
15976;SDS011;8091;51.914;12.786;2022-09-09T14:53:45;1182.88;;;999.90;;
15976;SDS011;8091;51.914;12.786;2022-09-09T14:58:40;1198.03;;;999.90;;
15976;SDS011;8091;51.914;12.786;2022-09-09T15:01:17;1186.53;;;999.90;;
15976;SDS011;8091;51.914;12.786;2022-09-09T15:03:48;1176.20;;;999.90;;
15976;SDS011;8091;51.914;12.786;2022-09-09T15:06:16;1158.35;;;999.90;;
15976;SDS011;8091;51.914;12.786;2022-09-09T15:08:43;1149.65;;;999.90;;
15976;SDS011;8091;51.914;12.786;2022-09-09T15:11:10;1133.00;;;999.90;;
15976;SDS011;8091;51.914;12.786;2022-09-09T15:13:37;1120.78;;;999.90;;
15976;SDS011;8091;51.914;12.786;2022-09-09T15:16:09;1109.47;;;999.90;;
15976;SDS011;8091;51.914;12.786;2022-09-09T15:18:37;1090.97;;;997.30;;
15976;SDS011;8091;51.914;12.786;2022-09-09T15:21:07;1074.68;;;985.65;;
15976;SDS011;8091;51.914;12.786;2022-09-09T15:23:40;1075.15;;;985.72;;
15976;SDS011;8091;51.914;12.786;2022-09-09T15:26:06;1063.10;;;974.40;;
15976;SDS011;8091;51.914;12.786;2022-09-09T15:28:33;1048.47;;;960.50;;
15976;SDS011;8091;51.914;12.786;2022-09-09T15:31:07;1039.55;;;952.90;;
15976;SDS011;8091;51.914;12.786;2022-09-09T15:33:36;1036.78;;;949.17;;
15976;SDS011;8091;51.914;12.786;2022-09-09T15:38:45;991.00;;;904.95;;
15976;SDS011;8091;51.914;12.786;2022-09-09T15:41:14;953.90;;;868.70;;
15976;SDS011;8091;51.914;12.786;2022-09-09T15:43:45;894.83;;;812.03;;
15976;SDS011;8091;51.914;12.786;2022-09-09T15:49:14;826.30;;;745.03;;
15976;SDS011;8091;51.914;12.786;2022-09-09T15:51:42;808.50;;;727.63;;
15976;SDS011;8091;51.914;12.786;2022-09-09T15:54:13;793.20;;;712.95;;
15976;SDS011;8091;51.914;12.786;2022-09-09T15:56:45;790.50;;;710.80;;
15976;SDS011;8091;51.914;12.786;2022-09-09T15:59:13;779.45;;;699.15;;
15976;SDS011;8091;51.914;12.786;2022-09-09T16:01:40;796.47;;;715.70;;
15976;SDS011;8091;51.914;12.786;2022-09-09T16:04:07;795.40;;;715.00;;
15976;SDS011;8091;51.914;12.786;2022-09-09T16:06:33;797.75;;;717.90;;
15976;SDS011;8091;51.914;12.786;2022-09-09T16:09:00;792.03;;;712.00;;
15976;SDS011;8091;51.914;12.786;2022-09-09T16:11:33;774.05;;;694.75;;
15976;SDS011;8091;51.914;12.786;2022-09-09T16:14:00;797.20;;;717.10;;
15976;SDS011;8091;51.914;12.786;2022-09-09T16:16:28;776.30;;;697.40;;
15976;SDS011;8091;51.914;12.786;2022-09-09T16:18:56;790.93;;;710.87;;
15976;SDS011;8091;51.914;12.786;2022-09-09T16:21:32;794.50;;;714.65;;
15976;SDS011;8091;51.914;12.786;2022-09-09T16:24:03;783.80;;;704.30;;
15976;SDS011;8091;51.914;12.786;2022-09-09T16:26:31;791.10;;;710.70;;
15976;SDS011;8091;51.914;12.786;2022-09-09T16:28:59;791.55;;;711.28;;
15976;SDS011;8091;51.914;12.786;2022-09-09T16:31:28;789.92;;;709.90;;
15976;SDS011;8091;51.914;12.786;2022-09-09T16:33:54;785.03;;;704.75;;
15976;SDS011;8091;51.914;12.786;2022-09-09T16:36:22;765.67;;;686.70;;
15976;SDS011;8091;51.914;12.786;2022-09-09T16:38:51;771.40;;;691.63;;
15976;SDS011;8091;51.914;12.786;2022-09-09T16:41:19;755.47;;;676.22;;
15976;SDS011;8091;51.914;12.786;2022-09-09T16:43:53;758.65;;;679.20;;
15976;SDS011;8091;51.914;12.786;2022-09-09T16:46:24;741.90;;;663.23;;
15976;SDS011;8091;51.914;12.786;2022-09-09T16:48:52;752.75;;;673.40;;
15976;SDS011;8091;51.914;12.786;2022-09-09T16:51:22;747.35;;;668.50;;